createdAt,value
2023-01-20T00:01:53.152Z,95904.09
2023-01-20T00:04:21.042Z,95902.41
2023-01-20T00:06:49.031Z,95906.69
2023-01-20T00:09:19.048Z,95912.78
2023-01-20T00:11:47.360Z,95911.75
2023-01-20T00:14:15.459Z,95920.53
2023-01-20T00:16:43.430Z,95910.06
2023-01-20T00:19:13.366Z,95917.84
2023-01-20T00:21:41.712Z,95914.31
2023-01-20T00:24:09.583Z,95923.03
2023-01-20T00:26:38.837Z,95922.88
2023-01-20T00:29:06.715Z,95921.91
2023-01-20T00:31:34.707Z,95926.19
2023-01-20T00:34:03.348Z,95930.50
2023-01-20T00:36:33.080Z,95929.69
2023-01-20T00:39:02.748Z,95925.47
2023-01-20T00:41:30.706Z,95934.03
2023-01-20T00:43:59.962Z,95928.06
2023-01-20T00:46:28.460Z,95935.69
2023-01-20T00:48:56.465Z,95945.97
2023-01-20T00:51:24.281Z,95947.78
2023-01-20T00:53:52.169Z,95945.09
2023-01-20T00:56:20.105Z,95952.03
2023-01-20T00:58:47.901Z,95952.75
2023-01-20T01:01:17.210Z,95962.16
2023-01-20T01:03:45.406Z,95960.38
2023-01-20T01:06:16.147Z,95958.53
2023-01-20T01:08:45.347Z,95961.13
2023-01-20T01:11:14.325Z,95962.94
2023-01-20T01:13:42.741Z,95963.81
2023-01-20T01:16:14.259Z,95969.09
2023-01-20T01:18:43.947Z,95974.38
2023-01-20T01:21:14.332Z,95980.44
2023-01-20T01:23:42.576Z,95979.50
2023-01-20T01:26:11.084Z,95975.25
2023-01-20T01:28:39.139Z,95983.88
2023-01-20T01:31:08.339Z,95991.75
2023-01-20T01:33:36.994Z,95988.31
2023-01-20T01:36:08.563Z,95986.50
2023-01-20T01:38:36.495Z,95995.06
2023-01-20T01:41:04.412Z,95988.22
2023-01-20T01:43:34.076Z,95997.84
2023-01-20T01:46:02.585Z,96001.28
2023-01-20T01:48:35.109Z,96004.81
2023-01-20T01:51:06.948Z,95998.88
2023-01-20T01:53:40.280Z,96000.69
2023-01-20T01:56:09.315Z,96002.47
2023-01-20T01:58:40.311Z,96000.84
2023-01-20T02:01:08.904Z,95999.38
2023-01-20T02:03:44.703Z,95995.84
2023-01-20T02:06:15.309Z,96007.97
2023-01-20T02:08:43.618Z,96004.47
2023-01-20T02:11:11.487Z,96007.91
2023-01-20T02:13:40.001Z,96010.69
2023-01-20T02:16:14.910Z,96011.34
2023-01-20T02:18:56.358Z,96013.16
2023-01-20T02:21:59.268Z,96011.41
2023-01-20T02:24:56.476Z,96010.63
2023-01-20T02:27:38.495Z,96015.81
2023-01-20T02:30:40.478Z,96016.78
2023-01-20T02:33:14.475Z,96020.16
2023-01-20T02:35:46.883Z,96020.19
2023-01-20T02:38:21.857Z,96019.31
2023-01-20T02:40:57.351Z,96017.50
2023-01-20T02:43:33.965Z,96021.13
2023-01-20T02:46:09.837Z,96019.31
2023-01-20T02:48:45.107Z,96027.28
2023-01-20T02:51:18.337Z,96020.28
2023-01-20T02:53:50.010Z,96031.47
2023-01-20T02:56:20.260Z,96034.22
2023-01-20T02:58:56.802Z,96034.84
2023-01-20T03:01:41.298Z,96032.31
2023-01-20T03:04:20.179Z,96040.16
2023-01-20T03:07:00.260Z,96046.97
2023-01-20T03:09:54.696Z,96046.97
2023-01-20T03:12:55.845Z,96053.88
2023-01-20T03:15:39.711Z,96053.09
2023-01-20T03:18:08.801Z,96051.25
2023-01-20T03:20:38.756Z,96055.59
2023-01-20T03:23:06.633Z,96059.06
2023-01-20T03:25:35.449Z,96059.06
2023-01-20T03:28:03.338Z,96061.66
2023-01-20T03:30:31.353Z,96066.84
2023-01-20T03:33:00.095Z,96068.66
2023-01-20T03:35:28.157Z,96071.25
2023-01-20T03:37:57.837Z,96064.38
2023-01-20T03:40:30.130Z,96069.34
2023-01-20T03:43:02.673Z,96072.81
2023-01-20T03:45:40.651Z,96074.63
2023-01-20T03:48:14.251Z,96085.00
2023-01-20T03:50:47.412Z,96078.28
2023-01-20T03:53:28.221Z,96083.50
2023-01-20T03:56:04.700Z,96082.59
2023-01-20T03:58:35.451Z,96088.63
2023-01-20T04:01:17.970Z,96086.78
2023-01-20T04:03:49.463Z,96079.09
2023-01-20T04:06:20.265Z,96083.44
2023-01-20T04:08:56.987Z,96082.53
2023-01-20T04:11:26.114Z,96086.03
2023-01-20T04:13:54.377Z,96083.44
2023-01-20T04:16:23.769Z,96086.88
2023-01-20T04:18:53.241Z,96091.41
2023-01-20T04:21:26.073Z,96089.66
2023-01-20T04:24:01.808Z,96094.84
2023-01-20T04:26:30.004Z,96102.75
2023-01-20T04:28:58.208Z,96110.50
2023-01-20T04:31:30.868Z,96117.38
2023-01-20T04:33:59.479Z,96107.78
2023-01-20T04:36:27.712Z,96118.28
2023-01-20T04:38:57.613Z,96112.97
2023-01-20T04:41:25.810Z,96126.81
2023-01-20T04:43:54.110Z,96131.16
2023-01-20T04:46:22.426Z,96128.53
2023-01-20T04:48:50.666Z,96124.19
2023-01-20T04:51:18.728Z,96125.16
2023-01-20T04:53:46.513Z,96133.84
2023-01-20T04:56:16.572Z,96136.47
2023-01-20T04:58:44.789Z,96139.13
2023-01-20T05:01:12.704Z,96137.31
2023-01-20T05:03:40.636Z,96153.59
2023-01-20T05:06:10.212Z,96152.72
2023-01-20T05:08:38.283Z,96151.06
2023-01-20T05:11:06.710Z,96147.63
2023-01-20T05:13:39.243Z,96155.28
2023-01-20T05:16:07.885Z,96151.91
2023-01-20T05:18:36.415Z,96155.31
2023-01-20T05:21:05.308Z,96161.47
2023-01-20T05:23:33.132Z,96165.16
2023-01-20T05:26:01.007Z,96162.44
2023-01-20T05:28:28.886Z,96169.50
2023-01-20T05:30:58.158Z,96177.19
2023-01-20T05:33:26.099Z,96171.13
2023-01-20T05:35:56.020Z,96179.72
2023-01-20T05:38:24.025Z,96175.53
2023-01-20T05:40:51.840Z,96191.06
2023-01-20T05:43:19.605Z,96193.59
2023-01-20T05:45:47.670Z,96187.63
2023-01-20T05:48:16.952Z,96200.50
2023-01-20T05:50:45.243Z,96197.16
2023-01-20T05:53:13.113Z,96210.13
2023-01-20T05:55:41.016Z,96206.59
2023-01-20T05:58:10.227Z,96200.63
2023-01-20T06:00:38.298Z,96205.88
2023-01-20T06:03:06.517Z,96211.97
2023-01-20T06:05:35.735Z,96211.28
2023-01-20T06:08:03.687Z,96224.28
2023-01-20T06:10:31.541Z,96220.13
2023-01-20T06:12:59.405Z,96223.75
2023-01-20T06:15:27.380Z,96225.44
2023-01-20T06:17:56.490Z,96235.75
2023-01-20T06:20:24.371Z,96238.38
2023-01-20T06:22:56.922Z,96234.31
2023-01-20T06:25:24.810Z,96236.91
2023-01-20T06:27:52.628Z,96237.03
2023-01-20T06:30:20.812Z,96243.97
2023-01-20T06:32:49.037Z,96246.66
2023-01-20T06:35:17.562Z,96243.97
2023-01-20T06:37:45.331Z,96242.66
2023-01-20T06:40:15.686Z,96244.47
2023-01-20T06:42:43.679Z,96250.63
2023-01-20T06:45:12.635Z,96247.38
2023-01-20T06:47:40.683Z,96265.50
2023-01-20T06:50:09.681Z,96264.81
2023-01-20T06:52:37.551Z,96259.69
2023-01-20T06:55:06.399Z,96266.59
2023-01-20T06:57:35.668Z,96266.69
2023-01-20T07:00:04.945Z,96275.53
2023-01-20T07:02:32.796Z,96276.59
2023-01-20T07:05:00.819Z,96286.22
2023-01-20T07:07:28.648Z,96292.31
2023-01-20T07:09:56.482Z,96290.72
2023-01-20T07:12:24.418Z,96297.69
2023-01-20T07:14:53.619Z,96293.53
2023-01-20T07:17:21.460Z,96308.31
2023-01-20T07:19:49.321Z,96313.34
2023-01-20T07:22:17.139Z,96311.63
2023-01-20T07:24:44.983Z,96311.72
2023-01-20T07:27:12.785Z,96319.28
2023-01-20T07:29:40.756Z,96326.22
2023-01-20T07:32:10.169Z,96327.06
2023-01-20T07:34:38.107Z,96332.22
2023-01-20T07:37:05.952Z,96339.28
2023-01-20T07:39:36.264Z,96342.69
2023-01-20T07:42:04.168Z,96346.91
2023-01-20T07:44:33.553Z,96350.38
2023-01-20T07:47:01.549Z,96350.38
2023-01-20T07:49:30.772Z,96354.66
2023-01-20T07:51:58.600Z,96357.16
2023-01-20T07:54:26.434Z,96368.25
2023-01-20T07:56:54.266Z,96369.97
2023-01-20T07:59:22.369Z,96362.16
2023-01-20T08:01:50.346Z,96366.53
2023-01-20T08:04:18.464Z,96368.03
2023-01-20T08:06:48.144Z,96374.94
2023-01-20T08:09:16.125Z,96384.38
2023-01-20T08:11:44.037Z,96379.19
2023-01-20T08:14:11.951Z,96382.47
2023-01-20T08:16:39.838Z,96391.16
2023-01-20T08:19:07.740Z,96389.38
2023-01-20T08:21:35.636Z,96397.94
2023-01-20T08:24:06.625Z,96402.94
2023-01-20T08:26:35.091Z,96397.03
2023-01-20T08:29:04.379Z,96400.41
2023-01-20T08:31:32.539Z,96397.75
2023-01-20T08:34:00.901Z,96409.94
2023-01-20T08:36:31.731Z,96413.38
2023-01-20T08:39:02.796Z,96415.97
2023-01-20T08:41:34.144Z,96412.50
2023-01-20T08:44:04.406Z,96424.59
2023-01-20T08:46:33.238Z,96422.06
2023-01-20T08:49:01.174Z,96426.41
2023-01-20T08:51:31.125Z,96428.09
2023-01-20T08:53:59.641Z,96429.84
2023-01-20T08:56:27.847Z,96428.09
2023-01-20T08:58:57.401Z,96437.63
2023-01-20T09:01:27.243Z,96434.22
2023-01-20T09:04:05.354Z,96436.84
2023-01-20T09:06:39.568Z,96434.31
2023-01-20T09:09:07.736Z,96434.22
2023-01-20T09:11:36.062Z,96441.16
2023-01-20T09:14:05.393Z,96452.31
2023-01-20T09:16:33.296Z,96459.25
2023-01-20T09:19:01.151Z,96459.19
2023-01-20T09:21:28.993Z,96448.91
2023-01-20T09:23:56.870Z,96462.56
2023-01-20T09:26:35.362Z,96461.84
2023-01-20T09:29:09.608Z,96464.28
2023-01-20T09:31:38.336Z,96457.25
2023-01-20T09:34:06.328Z,96472.78
2023-01-20T09:36:34.549Z,96470.09
2023-01-20T09:39:20.123Z,96471.69
2023-01-20T09:42:06.858Z,96474.03
2023-01-20T09:44:48.041Z,96472.19
2023-01-20T09:47:26.492Z,96480.66
2023-01-20T09:50:36.482Z,96477.81
2023-01-20T09:53:08.124Z,96485.28
2023-01-20T09:55:45.657Z,96489.38
2023-01-20T09:58:21.896Z,96487.34
2023-01-20T10:00:57.496Z,96486.25
2023-01-20T10:03:36.962Z,96488.59
2023-01-20T10:06:11.183Z,96486.78
2023-01-20T10:08:59.615Z,96489.22
2023-01-20T10:11:36.664Z,96485.56
2023-01-20T10:14:11.157Z,96488.09
2023-01-20T10:16:45.262Z,96487.03
2023-01-20T10:19:19.501Z,96493.75
2023-01-20T10:21:53.957Z,96493.41
2023-01-20T10:24:29.454Z,96494.13
2023-01-20T10:27:02.309Z,96490.50
2023-01-20T10:29:35.669Z,96492.84
2023-01-20T10:32:10.827Z,96504.72
2023-01-20T10:34:46.283Z,96491.59
2023-01-20T10:37:15.952Z,96498.41
2023-01-20T10:39:50.034Z,96487.84
2023-01-20T10:42:20.426Z,96494.38
2023-01-20T10:44:50.435Z,96488.25
2023-01-20T10:47:26.216Z,96491.66
2023-01-20T10:50:12.084Z,96489.78
2023-01-20T10:52:52.321Z,96494.94
2023-01-20T10:55:30.671Z,96490.50
2023-01-20T10:58:02.948Z,96491.13
2023-01-20T11:00:32.976Z,96497.06
2023-01-20T11:03:05.521Z,96503.91
2023-01-20T11:05:38.164Z,96500.28
2023-01-20T11:08:11.517Z,96504.38
2023-01-20T11:10:39.548Z,96500.94
2023-01-20T11:13:07.344Z,96507.53
2023-01-20T11:15:39.819Z,96507.28
2023-01-20T11:18:28.948Z,96501.13
2023-01-20T11:21:00.839Z,96501.97
2023-01-20T11:23:36.569Z,96500.25
2023-01-20T11:26:10.147Z,96503.56
2023-01-20T11:28:47.945Z,96509.53
2023-01-20T11:31:16.412Z,96512.13
2023-01-20T11:33:59.038Z,96511.00
2023-01-20T11:36:27.610Z,96511.91
2023-01-20T11:38:57.392Z,96516.31
2023-01-20T11:41:27.321Z,96510.06
2023-01-20T11:43:57.180Z,96506.72
2023-01-20T11:46:28.189Z,96512.75
2023-01-20T11:49:18.857Z,96518.66
2023-01-20T11:51:52.525Z,96513.38
2023-01-20T11:54:22.915Z,96513.38
2023-01-20T11:56:55.455Z,96514.16
2023-01-20T11:59:28.103Z,96513.19
2023-01-20T12:02:01.511Z,96513.88
2023-01-20T12:04:50.754Z,96519.88
2023-01-20T12:07:24.613Z,96519.09
2023-01-20T12:09:56.719Z,96510.41
2023-01-20T12:12:32.311Z,96520.72
2023-01-20T12:15:05.987Z,96518.97
2023-01-20T12:17:42.094Z,96522.41
2023-01-20T12:20:20.980Z,96518.66
2023-01-20T12:23:05.856Z,96521.13
2023-01-20T12:25:43.245Z,96527.13
2023-01-20T12:28:17.540Z,96528.75
2023-01-20T12:30:59.030Z,96526.94
2023-01-20T12:33:30.046Z,96530.00
2023-01-20T12:36:11.635Z,96533.03
2023-01-20T12:38:47.964Z,96533.63
2023-01-20T12:41:25.106Z,96529.91
2023-01-20T12:44:02.220Z,96521.97
2023-01-20T12:46:43.260Z,96523.69
2023-01-20T12:49:41.079Z,96531.34
2023-01-20T12:52:40.324Z,96537.47
2023-01-20T12:55:39.733Z,96535.63
2023-01-20T12:58:21.824Z,96542.59
2023-01-20T13:01:18.161Z,96539.75
2023-01-20T13:04:12.746Z,96534.34
2023-01-20T13:07:04.284Z,96541.19
2023-01-20T13:10:04.546Z,96536.63
2023-01-20T13:12:46.364Z,96539.81
2023-01-20T13:15:20.123Z,96540.50
2023-01-20T13:18:02.150Z,96532.94
2023-01-20T13:20:31.634Z,96525.88
2023-01-20T13:23:02.901Z,96531.22
2023-01-20T13:25:33.207Z,96531.16
2023-01-20T13:28:02.604Z,96536.44
2023-01-20T13:30:44.451Z,96538.00
2023-01-20T13:33:18.364Z,96535.31
2023-01-20T13:35:49.472Z,96539.47
2023-01-20T13:38:27.714Z,96540.41
2023-01-20T13:41:02.973Z,96543.78
2023-01-20T13:43:46.902Z,96545.47
2023-01-20T13:46:47.342Z,96544.47
2023-01-20T13:49:22.926Z,96552.38
2023-01-20T13:51:51.476Z,96551.44
2023-01-20T13:54:38.627Z,96549.63
2023-01-20T13:57:41.221Z,96553.06
2023-01-20T14:00:17.594Z,96548.72
2023-01-20T14:02:47.350Z,96554.56
2023-01-20T14:05:29.695Z,96563.16
2023-01-20T14:07:58.763Z,96558.88
2023-01-20T14:10:27.207Z,96559.66
2023-01-20T14:12:56.478Z,96561.31
2023-01-20T14:15:33.708Z,96561.28
2023-01-20T14:18:02.206Z,96566.38
2023-01-20T14:20:31.296Z,96563.03
2023-01-20T14:23:26.185Z,96565.50
2023-01-20T14:26:02.579Z,96561.28
2023-01-20T14:28:32.566Z,96565.44
2023-01-20T14:31:22.761Z,96567.19
2023-01-20T14:33:57.583Z,96565.75
2023-01-20T14:36:28.092Z,96570.16
2023-01-20T14:38:58.671Z,96576.44
2023-01-20T14:41:30.103Z,96575.00
2023-01-20T14:44:36.275Z,96577.81
2023-01-20T14:47:30.862Z,96588.59
2023-01-20T14:50:26.295Z,96587.94
2023-01-20T14:53:34.458Z,96593.34
2023-01-20T14:56:04.023Z,96595.53
2023-01-20T14:58:32.576Z,96594.78
2023-01-20T15:01:04.154Z,96602.78
2023-01-20T15:03:32.854Z,96602.06
2023-01-20T15:06:02.603Z,96606.66
2023-01-20T15:09:04.370Z,96603.31
2023-01-20T15:11:34.180Z,96610.72
2023-01-20T15:14:10.130Z,96603.91
2023-01-20T15:16:49.374Z,96607.66
2023-01-20T15:19:35.625Z,96608.50
2023-01-20T15:22:22.878Z,96613.50
2023-01-20T15:24:51.753Z,96610.06
2023-01-20T15:27:29.091Z,96609.56
2023-01-20T15:30:02.696Z,96608.03
2023-01-20T15:32:31.940Z,96604.84
2023-01-20T15:34:59.806Z,96608.44
2023-01-20T15:37:27.748Z,96617.19
2023-01-20T15:39:55.665Z,96616.53
2023-01-20T15:42:24.358Z,96625.28
2023-01-20T15:44:52.203Z,96617.63
2023-01-20T15:47:25.987Z,96619.56
2023-01-20T15:49:55.188Z,96616.25
2023-01-20T15:52:23.094Z,96617.28
2023-01-20T15:54:50.973Z,96621.94
2023-01-20T15:57:19.876Z,96621.34
2023-01-20T15:59:49.744Z,96624.03
2023-01-20T16:02:19.242Z,96627.59
2023-01-20T16:04:47.111Z,96637.25
2023-01-20T16:07:18.393Z,96631.47
2023-01-20T16:09:46.942Z,96634.22
2023-01-20T16:12:16.791Z,96641.28
2023-01-20T16:14:44.835Z,96646.69
2023-01-20T16:17:17.216Z,96641.56
2023-01-20T16:19:45.270Z,96640.81
2023-01-20T16:22:14.115Z,96646.91
2023-01-20T16:24:43.884Z,96645.41
2023-01-20T16:27:18.392Z,96639.50
2023-01-20T16:29:46.408Z,96646.50
2023-01-20T16:32:17.176Z,96655.38
2023-01-20T16:34:46.572Z,96647.75
2023-01-20T16:37:15.325Z,96659.16
2023-01-20T16:39:44.571Z,96661.91
2023-01-20T16:42:13.072Z,96668.91
2023-01-20T16:44:40.956Z,96661.94
2023-01-20T16:47:09.176Z,96663.72
2023-01-20T16:49:37.081Z,96669.03
2023-01-20T16:52:05.411Z,96664.78
2023-01-20T16:54:33.374Z,96665.81
2023-01-20T16:57:02.605Z,96671.22
2023-01-20T16:59:30.502Z,96676.53
2023-01-20T17:01:58.593Z,96679.22
2023-01-20T17:04:26.425Z,96675.84
2023-01-20T17:06:54.514Z,96682.84
2023-01-20T17:09:22.351Z,96684.50
2023-01-20T17:11:50.184Z,96689.00
2023-01-20T17:14:19.395Z,96698.53
2023-01-20T17:16:47.227Z,96697.66
2023-01-20T17:19:17.659Z,96694.28
2023-01-20T17:21:45.651Z,96691.75
2023-01-20T17:24:13.502Z,96694.47
2023-01-20T17:26:41.454Z,96691.69
2023-01-20T17:29:11.077Z,96698.59
2023-01-20T17:31:42.897Z,96697.88
2023-01-20T17:34:12.349Z,96702.09
2023-01-20T17:36:40.228Z,96704.53
2023-01-20T17:39:08.865Z,96702.03
2023-01-20T17:41:36.784Z,96708.34
2023-01-20T17:44:06.670Z,96706.69
2023-01-20T17:46:34.553Z,96712.03
2023-01-20T17:49:06.857Z,96716.41
2023-01-20T17:51:34.963Z,96708.75
2023-01-20T17:54:04.062Z,96714.03
2023-01-20T17:56:32.364Z,96718.28
2023-01-20T17:59:00.275Z,96718.41
2023-01-20T18:01:30.294Z,96719.34
2023-01-20T18:03:59.201Z,96717.69
2023-01-20T18:06:30.477Z,96724.75
2023-01-20T18:09:00.538Z,96724.69
2023-01-20T18:11:30.805Z,96726.28
2023-01-20T18:14:00.363Z,96720.41
2023-01-20T18:16:30.125Z,96718.50
2023-01-20T18:18:59.453Z,96726.25
2023-01-20T18:21:30.784Z,96724.66
2023-01-20T18:24:00.014Z,96725.34
2023-01-20T18:26:30.394Z,96723.75
2023-01-20T18:29:00.060Z,96727.41
2023-01-20T18:31:29.846Z,96729.19
2023-01-20T18:33:59.415Z,96727.53
2023-01-20T18:36:30.491Z,96727.53
2023-01-20T18:39:00.699Z,96723.38
2023-01-20T18:41:30.500Z,96723.50
2023-01-20T18:43:58.808Z,96736.44
2023-01-20T18:46:27.765Z,96732.22
2023-01-20T18:48:56.207Z,96734.59
2023-01-20T18:51:29.564Z,96736.44
2023-01-20T18:53:59.253Z,96726.09
2023-01-20T18:56:27.943Z,96729.50
2023-01-20T18:58:56.322Z,96739.03
2023-01-20T19:01:27.794Z,96733.63
2023-01-20T19:03:56.278Z,96745.66
2023-01-20T19:06:26.398Z,96743.88
2023-01-20T19:08:57.482Z,96756.00
2023-01-20T19:11:27.976Z,96753.44
2023-01-20T19:13:56.959Z,96754.47
2023-01-20T19:16:27.254Z,96751.03
2023-01-20T19:18:59.880Z,96758.72
2023-01-20T19:21:28.524Z,96753.66
2023-01-20T19:24:01.222Z,96752.84
2023-01-20T19:26:29.654Z,96753.81
2023-01-20T19:28:59.990Z,96753.81
2023-01-20T19:31:27.933Z,96757.31
2023-01-20T19:33:55.804Z,96755.66
2023-01-20T19:36:24.264Z,96760.09
2023-01-20T19:38:52.787Z,96761.66
2023-01-20T19:41:25.659Z,96755.50
2023-01-20T19:43:55.355Z,96754.50
2023-01-20T19:46:24.450Z,96769.34
2023-01-20T19:48:53.241Z,96767.66
2023-01-20T19:51:21.561Z,96766.81
2023-01-20T19:53:50.777Z,96760.78
2023-01-20T19:56:20.742Z,96767.66
2023-01-20T19:58:49.977Z,96770.28
2023-01-20T20:01:21.057Z,96765.09
2023-01-20T20:03:50.025Z,96764.50
2023-01-20T20:06:27.748Z,96759.44
2023-01-20T20:08:59.009Z,96761.19
2023-01-20T20:11:27.657Z,96762.97
2023-01-20T20:13:58.102Z,96759.63
2023-01-20T20:16:28.255Z,96763.03
2023-01-20T20:18:57.355Z,96758.75
2023-01-20T20:21:25.707Z,96760.59
2023-01-20T20:23:55.578Z,96760.44
2023-01-20T20:26:25.867Z,96769.91
2023-01-20T20:28:54.263Z,96767.31
2023-01-20T20:31:28.822Z,96770.59
2023-01-20T20:33:57.797Z,96768.84
2023-01-20T20:36:28.200Z,96764.38
2023-01-20T20:38:58.300Z,96773.91
2023-01-20T20:41:29.072Z,96776.47
2023-01-20T20:43:57.495Z,96779.88
2023-01-20T20:46:27.433Z,96780.72
2023-01-20T20:48:56.826Z,96775.44
2023-01-20T20:51:24.775Z,96785.75
2023-01-20T20:53:55.720Z,96783.09
2023-01-20T20:56:24.524Z,96779.53
2023-01-20T20:59:01.369Z,96780.34
2023-01-20T21:01:33.423Z,96777.91
2023-01-20T21:04:01.790Z,96784.00
2023-01-20T21:06:30.471Z,96784.00
2023-01-20T21:08:59.253Z,96784.88
2023-01-20T21:11:27.603Z,96784.16
2023-01-20T21:13:55.952Z,96789.28
2023-01-20T21:16:24.774Z,96790.13
2023-01-20T21:18:56.210Z,96788.41
2023-01-20T21:21:24.760Z,96791.75
2023-01-20T21:23:54.636Z,96796.84
2023-01-20T21:26:23.456Z,96790.69
2023-01-20T21:28:51.297Z,96791.63
2023-01-20T21:31:21.905Z,96795.00
2023-01-20T21:33:54.926Z,96795.00
2023-01-20T21:36:22.869Z,96798.31
2023-01-20T21:38:51.100Z,96801.97
2023-01-20T21:41:19.751Z,96799.25
2023-01-20T21:44:05.972Z,96794.13
2023-01-20T21:46:38.384Z,96796.72
2023-01-20T21:49:26.057Z,96800.34
2023-01-20T21:52:11.838Z,96805.66
2023-01-20T21:54:41.271Z,96805.78
2023-01-20T21:57:09.961Z,96806.63
2023-01-20T21:59:37.889Z,96804.88
2023-01-20T22:02:06.388Z,96809.06
2023-01-20T22:04:35.603Z,96806.38
2023-01-20T22:07:03.522Z,96802.88
2023-01-20T22:09:31.367Z,96815.91
2023-01-20T22:11:59.164Z,96808.84
2023-01-20T22:14:27.115Z,96815.69
2023-01-20T22:16:54.958Z,96816.72
2023-01-20T22:19:22.798Z,96817.41
2023-01-20T22:21:52.283Z,96815.66
2023-01-20T22:24:20.175Z,96824.28
2023-01-20T22:26:49.090Z,96825.91
2023-01-20T22:29:17.526Z,96821.69
2023-01-20T22:31:45.837Z,96826.06
2023-01-20T22:34:14.297Z,96825.16
2023-01-20T22:36:42.165Z,96833.72
2023-01-20T22:39:13.004Z,96837.22
2023-01-20T22:41:41.216Z,96839.91
2023-01-20T22:44:09.254Z,96839.94
2023-01-20T22:46:37.400Z,96841.59
2023-01-20T22:49:05.259Z,96841.69
2023-01-20T22:51:33.054Z,96843.44
2023-01-20T22:54:02.372Z,96843.44
2023-01-20T22:56:33.602Z,96841.56
2023-01-20T22:59:01.864Z,96840.63
2023-01-20T23:01:31.835Z,96839.69
2023-01-20T23:04:02.058Z,96843.06
2023-01-20T23:06:32.517Z,96842.16
2023-01-20T23:09:00.548Z,96840.50
2023-01-20T23:11:28.773Z,96843.00
2023-01-20T23:13:58.227Z,96844.72
2023-01-20T23:16:26.257Z,96846.41
2023-01-20T23:18:54.126Z,96844.72
2023-01-20T23:21:22.703Z,96850.75
2023-01-20T23:23:54.495Z,96850.75
2023-01-20T23:26:24.224Z,96852.31
2023-01-20T23:28:53.491Z,96854.16
2023-01-20T23:31:24.696Z,96849.78
2023-01-20T23:33:54.489Z,96846.28
2023-01-20T23:36:24.083Z,96854.06
2023-01-20T23:38:54.164Z,96861.03
2023-01-20T23:41:22.406Z,96852.38
2023-01-20T23:43:50.476Z,96854.97
2023-01-20T23:46:18.420Z,96847.13
2023-01-20T23:48:47.961Z,96862.78
2023-01-20T23:51:16.113Z,96849.81
2023-01-20T23:53:44.276Z,96866.22
2023-01-20T23:56:14.814Z,96860.31
2023-01-20T23:58:42.881Z,96864.53
